Time;durP1;ratioP1;P1;durP2;ratioP2;P2;SDS_P1;SDS_P2;PMS_P1;PMS_P2;Temp;Humidity;BMP_temperature;BMP_pressure;BME280_temperature;BME280_humidity;BME280_pressure;Samples;Min_cycle;Max_cycle;Signal;HPM_P1;HPM_P2
2024/04/19 00:01:24;;;;;;;6.72;3.95;;;3.70;99.30;;;;;;5451236;26;20211;-60
2024/04/19 00:03:50;;;;;;;4.47;3.57;;;3.60;99.30;;;;;;5451366;26;20222;-60
2024/04/19 00:06:16;;;;;;;6.75;4.57;;;3.50;99.60;;;;;;5451404;26;20515;-60
2024/04/19 00:08:42;;;;;;;3.65;2.88;;;3.40;99.70;;;;;;5419834;26;20570;-60
2024/04/19 00:11:08;;;;;;;8.43;4.00;;;3.30;99.90;;;;;;5450917;26;20256;-61
2024/04/19 00:13:33;;;;;;;3.40;3.00;;;3.30;99.90;;;;;;5451315;26;20265;-60
2024/04/19 00:15:59;;;;;;;3.80;3.07;;;3.20;99.90;;;;;;5451164;26;20270;-61
2024/04/19 00:18:26;;;;;;;6.70;2.93;;;3.30;99.90;;;;;;5451216;26;20291;-60
2024/04/19 00:20:54;;;;;;;3.67;3.38;;;3.50;99.90;;;;;;5419112;26;20233;-60
2024/04/19 00:23:20;;;;;;;4.00;2.95;;;3.50;99.70;;;;;;5419460;26;20264;-60
2024/04/19 00:25:45;;;;;;;5.25;4.45;;;3.60;99.70;;;;;;5451154;26;20219;-60
2024/04/19 00:28:11;;;;;;;4.00;3.50;;;3.60;99.70;;;;;;5451209;26;20253;-60
2024/04/19 00:30:37;;;;;;;5.43;4.20;;;3.60;99.80;;;;;;5450557;26;20270;-60
2024/04/19 00:33:02;;;;;;;5.20;3.40;;;3.50;99.70;;;;;;5450979;26;20234;-60
2024/04/19 00:35:28;;;;;;;5.30;3.63;;;3.60;99.80;;;;;;5450999;26;20210;-61
2024/04/19 00:37:54;;;;;;;7.00;3.90;;;3.70;99.80;;;;;;5450819;26;20700;-60
2024/04/19 00:40:19;;;;;;;4.67;3.23;;;3.70;99.80;;;;;;5450489;26;20371;-60
2024/04/19 00:42:58;;;;;;;6.03;5.10;;;3.70;99.80;;;;;;5450774;26;20334;-60
2024/04/19 00:45:36;;;;;;;6.65;2.90;;;3.80;99.90;;;;;;5450777;26;20214;-61
2024/04/19 00:48:13;;;;;;;4.20;3.55;;;3.80;99.90;;;;;;5451076;26;20230;-60
2024/04/19 00:50:40;;;;;;;5.78;3.83;;;3.90;99.60;;;;;;5450686;26;20229;-60
2024/04/19 00:53:06;;;;;;;4.45;3.20;;;4.00;99.50;;;;;;5450674;26;20278;-60
2024/04/19 00:55:33;;;;;;;4.05;3.55;;;3.90;99.50;;;;;;5450766;26;20480;-60
2024/04/19 00:58:00;;;;;;;5.80;4.30;;;3.90;99.60;;;;;;5454079;26;20214;-60
2024/04/19 01:00:26;;;;;;;4.03;3.60;;;3.90;99.70;;;;;;5453692;26;20327;-61
2024/04/19 01:02:55;;;;;;;5.15;4.18;;;3.80;99.80;;;;;;5453982;26;20571;-60
2024/04/19 01:05:22;;;;;;;4.57;3.35;;;3.90;99.90;;;;;;5454194;26;20222;-60
2024/04/19 01:07:48;;;;;;;4.18;3.45;;;4.00;99.80;;;;;;5454074;26;20261;-62
2024/04/19 01:10:14;;;;;;;6.10;2.78;;;4.10;99.50;;;;;;5453476;26;20210;-60
2024/04/19 01:12:40;;;;;;;3.70;2.83;;;4.10;99.30;;;;;;5453916;26;20291;-60
2024/04/19 01:15:22;;;;;;;5.37;3.57;;;4.00;99.20;;;;;;5453914;26;20514;-60
2024/04/19 01:17:49;;;;;;;4.47;3.38;;;4.00;99.20;;;;;;5453852;26;20323;-61
2024/04/19 01:20:14;;;;;;;4.72;3.35;;;4.00;99.50;;;;;;5453435;26;20222;-60
2024/04/19 01:22:42;;;;;;;3.93;3.50;;;4.00;99.60;;;;;;5453698;26;20813;-61
2024/04/19 01:25:24;;;;;;;5.55;4.13;;;4.00;99.30;;;;;;5453688;26;20458;-60
2024/04/19 01:27:49;;;;;;;4.65;4.25;;;4.00;99.30;;;;;;5453789;26;20758;-60
2024/04/19 01:30:15;;;;;;;4.83;3.47;;;4.00;99.30;;;;;;5453263;26;20218;-60
2024/04/19 01:32:41;;;;;;;7.33;3.80;;;3.90;99.20;;;;;;5421975;26;20269;-60
2024/04/19 01:35:06;;;;;;;4.80;3.40;;;3.90;99.30;;;;;;5454043;26;20609;-60
2024/04/19 01:37:32;;;;;;;2.73;2.53;;;3.80;99.40;;;;;;5453498;26;20248;-61
2024/04/19 01:39:57;;;;;;;4.13;3.20;;;3.80;99.60;;;;;;5453471;26;20697;-61
2024/04/19 01:42:23;;;;;;;3.10;2.80;;;3.80;99.60;;;;;;5453467;26;20230;-61
2024/04/19 01:44:49;;;;;;;3.47;3.17;;;3.80;99.30;;;;;;5453771;26;20253;-61
2024/04/19 01:47:14;;;;;;;5.67;4.63;;;3.80;99.40;;;;;;5453471;26;20222;-61
2024/04/19 01:49:41;;;;;;;6.10;5.10;;;3.80;99.40;;;;;;5422041;26;20720;-61
2024/04/19 01:52:07;;;;;;;5.90;3.22;;;3.70;99.50;;;;;;5452988;26;20269;-60
2024/04/19 01:54:32;;;;;;;4.07;3.63;;;3.80;99.50;;;;;;5453388;26;20223;-61
2024/04/19 01:57:01;;;;;;;6.17;3.47;;;3.70;99.60;;;;;;5453323;26;20217;-61
2024/04/19 01:59:28;;;;;;;4.15;3.58;;;3.90;99.90;;;;;;5453085;26;20307;-61
2024/04/19 02:01:54;;;;;;;4.00;3.28;;;3.90;99.50;;;;;;5453044;26;20327;-61
2024/04/19 02:04:20;;;;;;;4.60;3.22;;;3.90;99.70;;;;;;5453240;26;20279;-61
2024/04/19 02:06:45;;;;;;;4.77;3.93;;;3.90;99.60;;;;;;5453066;26;20219;-61
2024/04/19 02:09:11;;;;;;;5.87;3.53;;;3.80;99.70;;;;;;5453002;26;20218;-61
2024/04/19 02:11:36;;;;;;;5.30;3.40;;;3.80;99.90;;;;;;5452861;26;20227;-61
2024/04/19 02:14:02;;;;;;;6.83;4.63;;;3.80;99.90;;;;;;5453054;26;20218;-61
2024/04/19 02:16:28;;;;;;;4.40;3.80;;;3.90;99.90;;;;;;5453113;26;20314;-61
2024/04/19 02:18:53;;;;;;;5.30;4.27;;;3.80;99.90;;;;;;5453027;26;20709;-61
2024/04/19 02:21:19;;;;;;;4.00;3.60;;;3.80;99.90;;;;;;5452653;26;20226;-60
2024/04/19 02:23:45;;;;;;;7.20;3.77;;;3.70;99.90;;;;;;5453147;26;20230;-61
2024/04/19 02:26:11;;;;;;;4.70;3.63;;;3.80;99.90;;;;;;5452838;26;20262;-61
2024/04/19 02:31:24;;;;;;;3.35;3.08;;;3.80;99.90;;;;;;5452572;26;20256;-60
2024/04/19 02:33:50;;;;;;;3.58;3.28;;;3.80;99.90;;;;;;5452719;26;20571;-60
2024/04/19 02:36:16;;;;;;;3.67;3.37;;;3.70;99.70;;;;;;5452947;26;20215;-61
2024/04/19 02:38:41;;;;;;;3.07;2.77;;;3.70;99.90;;;;;;5421278;26;20592;-61
2024/04/19 02:41:08;;;;;;;3.50;3.07;;;3.80;99.90;;;;;;5452304;26;20557;-61
2024/04/19 02:43:34;;;;;;;3.92;3.58;;;3.90;99.60;;;;;;5420815;26;20519;-61
2024/04/19 02:46:06;;;;;;;4.80;2.97;;;4.00;99.40;;;;;;5452953;26;20214;-61
2024/04/19 02:48:32;;;;;;;5.78;4.25;;;3.90;99.40;;;;;;5453049;26;20921;-61
2024/04/19 02:50:58;;;;;;;4.18;3.65;;;3.80;99.50;;;;;;5452363;26;20219;-61
2024/04/19 02:53:24;;;;;;;5.53;3.90;;;3.90;99.60;;;;;;5450889;26;20743;-61
2024/04/19 02:55:52;;;;;;;4.63;3.57;;;3.90;99.60;;;;;;5452167;26;20579;-60
2024/04/19 02:58:18;;;;;;;6.25;4.05;;;3.80;99.60;;;;;;5452313;26;20448;-61
2024/04/19 03:00:44;;;;;;;6.38;3.00;;;3.80;99.80;;;;;;5452058;26;20663;-61
2024/04/19 03:03:10;;;;;;;4.30;3.20;;;3.90;99.80;;;;;;5452602;26;20326;-61
2024/04/19 03:05:36;;;;;;;5.22;3.80;;;3.90;99.90;;;;;;5452790;26;20230;-61
2024/04/19 03:08:03;;;;;;;5.50;3.37;;;3.80;99.90;;;;;;5452984;26;20210;-61
2024/04/19 03:10:29;;;;;;;3.88;3.30;;;3.80;99.90;;;;;;5452226;26;20210;-61
2024/04/19 03:12:55;;;;;;;3.77;3.43;;;3.90;99.90;;;;;;5452225;26;20577;-61
2024/04/19 03:15:20;;;;;;;4.53;3.80;;;3.90;99.90;;;;;;5452302;26;20640;-61
2024/04/19 03:17:46;;;;;;;9.43;4.23;;;3.80;99.90;;;;;;5452126;26;20658;-61
2024/04/19 03:20:11;;;;;;;4.87;3.63;;;3.70;99.90;;;;;;5451091;26;20257;-61
2024/04/19 03:22:37;;;;;;;3.70;3.37;;;3.80;99.90;;;;;;5452039;26;20571;-61
2024/04/19 03:25:03;;;;;;;6.70;4.40;;;3.80;99.90;;;;;;5452134;26;20218;-61
2024/04/19 03:27:29;;;;;;;7.10;4.97;;;3.90;99.90;;;;;;5452105;26;20218;-61
2024/04/19 03:29:55;;;;;;;6.40;4.90;;;4.00;99.90;;;;;;5451924;26;20261;-61
2024/04/19 03:32:23;;;;;;;8.50;5.43;;;4.20;99.90;;;;;;5461589;21;20260;-62
2024/04/19 03:34:48;;;;;;;8.23;5.50;;;4.30;99.90;;;;;;5416043;26;20207;-62
2024/04/19 03:37:14;;;;;;;8.93;5.97;;;4.30;99.90;;;;;;5415951;26;20255;-62
2024/04/19 03:39:40;;;;;;;9.90;4.28;;;4.30;99.90;;;;;;5384468;26;20330;-61
2024/04/19 03:42:11;;;;;;;10.37;5.37;;;4.30;99.90;;;;;;5415538;26;20694;-62
2024/04/19 03:47:24;;;;;;;12.98;7.70;;;4.40;99.90;;;;;;5415930;26;20246;-62
2024/04/19 03:49:49;;;;;;;8.50;5.80;;;4.40;99.90;;;;;;5416068;26;20215;-62
2024/04/19 03:52:15;;;;;;;8.90;4.97;;;4.30;99.90;;;;;;5415839;26;20223;-62
2024/04/19 03:54:41;;;;;;;8.43;5.80;;;4.50;99.90;;;;;;5415766;26;20323;-62
2024/04/19 03:57:07;;;;;;;7.40;6.40;;;4.50;99.90;;;;;;5415617;26;20697;-62
2024/04/19 03:59:33;;;;;;;10.13;6.15;;;4.60;99.80;;;;;;5415461;26;20254;-62
2024/04/19 04:01:58;;;;;;;11.90;6.50;;;4.60;99.80;;;;;;5415316;26;20227;-62
2024/04/19 04:04:24;;;;;;;11.07;6.90;;;4.60;99.80;;;;;;5415664;26;20227;-62
2024/04/19 04:06:50;;;;;;;8.37;5.80;;;4.50;99.90;;;;;;5415552;26;20227;-63
2024/04/19 04:09:15;;;;;;;10.83;5.30;;;4.50;99.90;;;;;;5415548;26;20315;-62
2024/04/19 04:11:41;;;;;;;7.67;4.80;;;4.40;99.90;;;;;;5415200;26;20249;-62
2024/04/19 04:14:08;;;;;;;10.13;6.20;;;4.40;99.90;;;;;;5415474;26;20442;-62
2024/04/19 04:16:34;;;;;;;9.07;6.05;;;4.40;99.90;;;;;;5415419;26;20324;-62
2024/04/19 04:18:59;;;;;;;6.90;6.10;;;4.30;99.90;;;;;;5415382;26;20223;-63
2024/04/19 04:21:25;;;;;;;8.43;5.70;;;4.20;99.90;;;;;;5415104;26;20254;-62
2024/04/19 04:23:50;;;;;;;7.10;5.70;;;4.30;99.90;;;;;;5415254;26;20219;-61
2024/04/19 04:26:16;;;;;;;12.00;5.70;;;4.40;99.90;;;;;;5415168;26;20551;-62
2024/04/19 04:28:42;;;;;;;9.07;5.97;;;4.40;99.90;;;;;;5415265;26;20219;-62
2024/04/19 04:31:08;;;;;;;6.73;6.03;;;4.30;99.90;;;;;;5413496;26;20219;-62
2024/04/19 04:33:34;;;;;;;9.85;5.35;;;4.30;99.90;;;;;;5415141;26;20625;-61
2024/04/19 04:35:59;;;;;;;9.10;6.50;;;4.30;99.90;;;;;;5415458;26;20223;-62
2024/04/19 04:38:25;;;;;;;7.07;5.37;;;4.30;99.90;;;;;;5415161;26;20563;-62
2024/04/19 04:40:50;;;;;;;8.40;6.70;;;4.40;99.90;;;;;;5414578;26;20215;-63
2024/04/19 04:43:16;;;;;;;8.30;6.70;;;4.50;99.90;;;;;;5415099;26;20690;-62
2024/04/19 04:45:43;;;;;;;9.20;6.50;;;4.40;99.90;;;;;;5415143;26;20223;-62
2024/04/19 04:48:09;;;;;;;8.45;6.20;;;4.50;99.90;;;;;;5415147;26;20490;-62
2024/04/19 04:50:34;;;;;;;7.60;5.40;;;4.50;99.90;;;;;;5414576;26;20219;-62
2024/04/19 04:53:01;;;;;;;7.50;5.53;;;4.50;99.90;;;;;;5414741;26;20284;-62
2024/04/19 04:55:31;;;;;;;7.32;5.57;;;4.50;99.90;;;;;;5383375;26;20224;-61
2024/04/19 04:57:57;;;;;;;7.20;6.20;;;4.40;99.90;;;;;;5414670;26;20295;-62
2024/04/19 05:00:22;;;;;;;6.80;5.20;;;4.50;99.90;;;;;;5414331;26;20223;-62
2024/04/19 05:02:48;;;;;;;8.20;6.30;;;4.60;99.90;;;;;;5414425;26;20270;-62
2024/04/19 05:05:14;;;;;;;8.50;6.77;;;4.50;99.90;;;;;;5414580;26;20219;-62
2024/04/19 05:07:39;;;;;;;11.70;7.43;;;4.40;99.90;;;;;;5414562;26;20218;-62
2024/04/19 05:10:06;;;;;;;6.50;5.80;;;4.30;99.90;;;;;;5414252;26;20212;-63
2024/04/19 05:12:31;;;;;;;6.82;5.00;;;4.10;99.90;;;;;;5414398;26;20229;-61
2024/04/19 05:14:57;;;;;;;7.17;6.30;;;4.10;99.90;;;;;;5414417;26;20280;-62
2024/04/19 05:17:23;;;;;;;8.38;5.50;;;4.10;99.90;;;;;;5414312;26;20250;-62
2024/04/19 05:19:49;;;;;;;7.50;5.57;;;4.30;99.90;;;;;;5414132;26;20212;-62
2024/04/19 05:22:14;;;;;;;7.63;5.27;;;4.40;99.90;;;;;;5413698;26;20785;-62
2024/04/19 05:24:41;;;;;;;7.37;5.00;;;4.40;99.90;;;;;;5414066;26;20215;-61
2024/04/19 05:27:06;;;;;;;7.90;5.22;;;4.40;99.90;;;;;;5414690;26;20269;-62
2024/04/19 05:29:32;;;;;;;9.40;5.40;;;4.30;99.90;;;;;;5414385;26;20216;-63
2024/04/19 05:31:57;;;;;;;10.27;4.67;;;4.50;99.90;;;;;;5413949;26;20262;-62
2024/04/19 05:34:23;;;;;;;6.77;5.77;;;4.60;99.90;;;;;;5414124;26;20701;-62
2024/04/19 05:36:49;;;;;;;11.50;6.30;;;4.50;99.90;;;;;;5413942;26;20250;-62
2024/04/19 05:39:14;;;;;;;6.57;4.83;;;4.40;99.90;;;;;;5413663;26;20227;-62
2024/04/19 05:41:40;;;;;;;5.40;4.70;;;4.30;99.90;;;;;;5382658;26;20227;-62
2024/04/19 05:44:06;;;;;;;8.37;5.17;;;4.20;99.90;;;;;;5417676;26;20219;-62
2024/04/19 05:46:31;;;;;;;6.57;5.40;;;4.10;99.90;;;;;;5417562;26;20220;-62
2024/04/19 05:48:58;;;;;;;6.00;4.97;;;4.20;99.90;;;;;;5417659;26;20690;-62
2024/04/19 05:51:23;;;;;;;6.20;4.35;;;4.10;99.90;;;;;;5417299;26;20501;-62
2024/04/19 05:53:50;;;;;;;5.10;4.60;;;4.10;99.90;;;;;;5417348;26;20228;-62
2024/04/19 05:56:15;;;;;;;7.22;6.07;;;4.10;99.90;;;;;;5417451;26;20324;-62
2024/04/19 05:58:43;;;;;;;5.40;4.47;;;4.10;99.90;;;;;;5417426;26;20220;-62
2024/04/19 06:01:09;;;;;;;8.35;5.47;;;4.40;99.90;;;;;;5416912;26;20227;-62
2024/04/19 06:03:35;;;;;;;7.47;5.60;;;4.50;99.90;;;;;;5417339;26;20228;-62
2024/04/19 06:06:00;;;;;;;4.57;4.00;;;4.50;99.90;;;;;;5417197;26;20713;-62
2024/04/19 06:08:26;;;;;;;9.10;6.33;;;4.50;99.90;;;;;;5417247;26;20207;-62
2024/04/19 06:10:51;;;;;;;8.33;4.90;;;4.60;99.90;;;;;;5417076;26;20250;-62
2024/04/19 06:13:17;;;;;;;5.90;5.17;;;4.70;99.90;;;;;;5417176;26;20282;-62
2024/04/19 06:15:43;;;;;;;9.67;5.07;;;4.50;99.90;;;;;;5417213;26;20216;-62
2024/04/19 06:18:09;;;;;;;9.50;5.97;;;4.50;99.90;;;;;;5417130;26;20697;-61
2024/04/19 06:20:36;;;;;;;4.85;4.00;;;4.60;99.90;;;;;;5385180;26;20341;-62
2024/04/19 06:23:03;;;;;;;7.00;5.20;;;4.70;99.90;;;;;;5416929;26;20223;-62
2024/04/19 06:25:28;;;;;;;5.68;4.82;;;4.60;99.90;;;;;;5417000;26;20330;-61
2024/04/19 06:27:54;;;;;;;4.60;3.50;;;4.60;99.90;;;;;;5417153;26;20219;-62
2024/04/19 06:30:20;;;;;;;6.27;4.30;;;4.50;99.90;;;;;;5416695;26;20259;-62
2024/04/19 06:32:45;;;;;;;10.60;6.23;;;4.30;99.90;;;;;;5416997;26;20261;-62
2024/04/19 06:35:15;;;;;;;5.80;5.17;;;4.00;99.90;;;;;;5416783;26;20219;-62
2024/04/19 06:37:40;;;;;;;4.65;4.18;;;4.10;99.90;;;;;;5416865;26;20660;-63
2024/04/19 06:40:07;;;;;;;8.80;5.40;;;4.10;99.90;;;;;;5416615;26;20215;-62
2024/04/19 06:42:33;;;;;;;5.85;3.80;;;4.10;99.90;;;;;;5416638;26;20224;-62
2024/04/19 06:44:59;;;;;;;7.05;3.90;;;4.20;99.90;;;;;;5416906;26;20264;-63
2024/04/19 06:47:24;;;;;;;3.97;3.30;;;4.30;99.90;;;;;;5416436;26;20724;-62
2024/04/19 06:49:50;;;;;;;6.67;5.37;;;4.20;99.90;;;;;;5416477;26;20211;-62
2024/04/19 06:52:16;;;;;;;9.60;5.30;;;4.30;99.90;;;;;;5416347;26;20231;-62
2024/04/19 06:54:41;;;;;;;5.97;4.53;;;4.50;99.90;;;;;;5415724;26;20220;-62
2024/04/19 06:57:07;;;;;;;9.03;5.57;;;4.50;99.90;;;;;;5416651;26;20219;-62
2024/04/19 06:59:32;;;;;;;8.90;6.60;;;4.60;99.90;;;;;;5416534;26;20211;-62
2024/04/19 07:01:58;;;;;;;7.23;6.03;;;4.70;99.90;;;;;;5416356;26;20224;-62
2024/04/19 07:04:25;;;;;;;8.40;5.13;;;4.80;99.90;;;;;;5416285;26;20212;-62
2024/04/19 07:06:50;;;;;;;5.85;4.65;;;4.80;99.90;;;;;;5416499;26;20282;-62
2024/04/19 07:09:17;;;;;;;11.18;5.75;;;4.80;99.90;;;;;;5416256;26;20223;-62
2024/04/19 07:11:45;;;;;;;7.17;5.20;;;4.70;99.90;;;;;;5415981;26;20258;-62
2024/04/19 07:14:10;;;;;;;5.40;4.75;;;4.70;99.90;;;;;;5416399;26;20258;-62
2024/04/19 07:16:36;;;;;;;5.77;4.70;;;4.60;99.90;;;;;;5416424;26;20630;-62
2024/04/19 07:19:02;;;;;;;9.60;5.53;;;4.60;99.90;;;;;;5416113;26;20292;-63
2024/04/19 07:21:27;;;;;;;5.80;5.07;;;4.60;99.90;;;;;;5415999;26;20220;-63
2024/04/19 07:23:53;;;;;;;6.13;4.70;;;4.70;99.90;;;;;;5416233;26;20227;-62
2024/04/19 07:26:18;;;;;;;11.00;6.23;;;4.70;99.90;;;;;;5416231;26;20223;-63
2024/04/19 07:28:44;;;;;;;8.00;6.00;;;4.80;99.90;;;;;;5416304;26;20224;-62
2024/04/19 07:31:10;;;;;;;6.03;5.17;;;4.80;99.90;;;;;;5415735;26;20798;-62
2024/04/19 07:33:36;;;;;;;7.85;5.10;;;4.90;99.90;;;;;;5416248;26;20230;-62
2024/04/19 07:36:02;;;;;;;9.37;8.10;;;4.70;99.90;;;;;;5416334;26;20316;-62
2024/04/19 07:38:28;;;;;;;9.53;4.83;;;4.60;99.90;;;;;;5416389;26;20227;-62
2024/04/19 07:40:53;;;;;;;7.83;6.77;;;4.80;99.90;;;;;;5415682;26;20441;-63
2024/04/19 07:43:19;;;;;;;7.43;5.30;;;4.90;99.90;;;;;;5415916;26;20458;-62
2024/04/19 07:45:45;;;;;;;8.17;4.73;;;5.00;99.90;;;;;;5415984;26;20745;-62
2024/04/19 07:48:10;;;;;;;6.83;5.50;;;5.00;99.90;;;;;;5415690;26;20255;-62
2024/04/19 07:50:36;;;;;;;9.33;5.67;;;4.90;99.90;;;;;;5415543;26;20258;-62
2024/04/19 07:53:02;;;;;;;6.20;5.60;;;5.00;99.90;;;;;;5415810;26;20574;-62
2024/04/19 07:55:27;;;;;;;8.80;6.60;;;5.10;99.90;;;;;;5415834;26;20225;-61
2024/04/19 07:57:53;;;;;;;10.30;5.50;;;5.00;99.90;;;;;;5415785;26;20303;-63
2024/04/19 08:00:21;;;;;;;10.47;5.93;;;5.00;99.90;;;;;;5415363;26;20604;-62
2024/04/19 08:02:47;;;;;;;8.57;6.07;;;5.10;99.90;;;;;;5384177;26;20235;-62
2024/04/19 08:05:13;;;;;;;6.90;5.57;;;5.10;99.90;;;;;;5415389;26;20254;-62
2024/04/19 08:07:39;;;;;;;5.78;5.18;;;5.00;99.70;;;;;;5415625;26;20216;-62
2024/04/19 08:10:06;;;;;;;12.93;6.60;;;5.00;99.80;;;;;;5415415;26;20757;-62
2024/04/19 08:12:31;;;;;;;8.52;6.57;;;5.20;99.90;;;;;;5415433;26;20579;-62
2024/04/19 08:14:57;;;;;;;9.47;6.80;;;5.30;99.70;;;;;;5415553;26;20704;-62
2024/04/19 08:17:23;;;;;;;8.37;5.50;;;5.40;99.40;;;;;;5415296;26;20642;-62
2024/04/19 08:19:49;;;;;;;6.00;5.40;;;5.50;98.90;;;;;;5415297;26;20611;-62
2024/04/19 08:22:15;;;;;;;8.65;5.97;;;5.40;98.70;;;;;;5415166;26;20274;-62
2024/04/19 08:24:41;;;;;;;7.20;4.67;;;5.30;98.90;;;;;;5415451;26;20217;-62
2024/04/19 08:27:07;;;;;;;8.98;6.53;;;5.20;98.80;;;;;;5415279;26;20453;-62
2024/04/19 08:29:33;;;;;;;7.60;5.73;;;5.30;98.90;;;;;;5415126;26;20259;-62
2024/04/19 08:31:58;;;;;;;8.20;7.13;;;5.40;99.10;;;;;;5414738;26;20466;-62
2024/04/19 08:34:24;;;;;;;9.70;5.80;;;5.40;99.10;;;;;;5415272;26;20220;-61
2024/04/19 08:36:50;;;;;;;6.37;5.27;;;5.50;98.70;;;;;;5415198;26;20266;-63
2024/04/19 08:39:15;;;;;;;12.00;5.87;;;5.30;98.60;;;;;;5414969;26;20219;-63
2024/04/19 08:41:43;;;;;;;9.07;7.07;;;5.30;98.90;;;;;;5414653;26;20674;-62
2024/04/19 08:44:09;;;;;;;7.70;5.80;;;5.30;99.00;;;;;;5414967;26;20262;-62
2024/04/19 08:46:39;;;;;;;5.97;4.00;;;5.30;98.80;;;;;;5414791;26;20220;-62
2024/04/19 08:49:08;;;;;;;10.65;4.70;;;5.30;98.80;;;;;;5414617;26;20966;-62
2024/04/19 08:51:36;;;;;;;7.93;5.88;;;5.30;98.70;;;;;;5414607;26;20689;-62
2024/04/19 08:54:02;;;;;;;8.02;4.75;;;5.40;98.50;;;;;;5414930;26;20777;-63
2024/04/19 08:56:29;;;;;;;9.50;5.07;;;5.40;98.40;;;;;;5414809;26;20260;-62
2024/04/19 08:58:56;;;;;;;7.80;5.97;;;5.40;98.40;;;;;;5414613;26;20338;-62
2024/04/19 09:01:22;;;;;;;5.57;4.60;;;5.40;98.30;;;;;;5414565;26;20610;-62
2024/04/19 09:03:48;;;;;;;6.53;5.20;;;5.50;98.20;;;;;;5414508;26;20279;-63
2024/04/19 09:06:14;;;;;;;8.33;5.90;;;5.40;97.90;;;;;;5414608;26;20611;-62
2024/04/19 09:08:41;;;;;;;6.27;4.70;;;5.30;98.40;;;;;;5414634;26;20217;-62
2024/04/19 09:11:10;;;;;;;4.90;4.50;;;5.40;98.90;;;;;;5414235;26;20794;-62
2024/04/19 09:13:36;;;;;;;6.55;4.63;;;5.30;98.40;;;;;;5414277;26;20227;-62
2024/04/19 09:16:01;;;;;;;5.83;4.03;;;5.30;98.50;;;;;;5414411;26;20327;-62
2024/04/19 09:18:27;;;;;;;4.00;3.70;;;5.20;98.50;;;;;;5417376;26;20697;-62
2024/04/19 09:20:53;;;;;;;3.15;2.85;;;5.20;98.70;;;;;;5417626;26;20575;-62
2024/04/19 09:23:19;;;;;;;4.87;4.37;;;5.40;98.70;;;;;;5417797;26;20280;-62
2024/04/19 09:25:54;;;;;;;4.35;3.95;;;5.40;98.50;;;;;;5418002;26;20438;-61
2024/04/19 09:28:22;;;;;;;5.30;3.55;;;5.40;98.60;;;;;;5417916;26;20262;-62
2024/04/19 09:30:52;;;;;;;4.68;4.13;;;5.30;98.70;;;;;;5417430;26;20262;-62
2024/04/19 09:33:23;;;;;;;5.38;4.15;;;5.30;98.50;;;;;;5497363;21;20254;-62
2024/04/19 09:35:50;;;;;;;5.40;4.05;;;5.10;98.50;;;;;;5453684;26;20319;-62
2024/04/19 09:38:17;;;;;;;5.63;3.70;;;5.10;98.90;;;;;;5453752;26;20539;-62
2024/04/19 09:40:46;;;;;;;5.60;4.00;;;5.20;99.20;;;;;;5453233;26;20569;-64
2024/04/19 09:43:15;;;;;;;5.85;4.45;;;5.30;99.10;;;;;;5453553;26;20377;-65
2024/04/19 09:45:47;;;;;;;6.43;5.78;;;5.20;98.60;;;;;;5422063;26;20260;-65
2024/04/19 09:48:16;;;;;;;6.88;4.97;;;5.10;98.90;;;;;;5453598;26;20705;-65
2024/04/19 09:50:49;;;;;;;5.88;5.28;;;5.10;98.70;;;;;;5421470;26;20249;-65
2024/04/19 09:53:41;;;;;;;2.45;2.17;;;5.10;99.00;;;;;;5453310;26;20222;-65
2024/04/19 09:56:14;;;;;;;7.15;5.15;;;5.00;98.80;;;;;;5434998;26;20210;-65
2024/04/19 09:58:41;;;;;;;7.05;5.40;;;4.90;99.00;;;;;;5453474;26;20215;-65
2024/04/19 10:01:07;;;;;;;6.97;5.22;;;4.90;99.20;;;;;;5452929;26;20210;-65
2024/04/19 10:03:35;;;;;;;6.22;4.88;;;5.00;99.40;;;;;;5453194;26;20307;-65
2024/04/19 10:06:05;;;;;;;7.13;5.50;;;5.00;99.40;;;;;;5453177;26;20735;-65
2024/04/19 10:08:31;;;;;;;6.95;5.35;;;5.00;99.50;;;;;;5453209;26;20224;-65
2024/04/19 10:10:57;;;;;;;6.40;5.90;;;4.80;99.80;;;;;;5452825;26;20212;-65
2024/04/19 10:13:29;;;;;;;8.15;6.15;;;4.80;99.90;;;;;;5453817;26;20852;-65
2024/04/19 10:15:59;;;;;;;6.72;5.05;;;4.70;99.90;;;;;;5453586;26;20211;-65
2024/04/19 10:18:26;;;;;;;6.53;5.60;;;4.70;99.90;;;;;;5452890;26;20808;-65
2024/04/19 10:20:52;;;;;;;7.72;5.97;;;4.80;99.90;;;;;;5452833;26;20550;-65
2024/04/19 10:23:21;;;;;;;6.55;5.85;;;4.60;99.90;;;;;;5452901;26;20226;-65
2024/04/19 10:25:47;;;;;;;8.35;5.35;;;4.50;99.90;;;;;;5453083;26;20214;-65
2024/04/19 10:28:15;;;;;;;5.95;5.15;;;4.60;99.90;;;;;;5420203;26;20687;-65
2024/04/19 10:30:42;;;;;;;5.35;4.72;;;4.60;99.90;;;;;;5452586;26;20255;-65
2024/04/19 10:33:11;;;;;;;5.22;4.00;;;4.50;99.90;;;;;;5421217;26;20231;-65
2024/04/19 10:35:47;;;;;;;10.30;6.10;;;4.30;99.90;;;;;;5452930;26;20258;-65
2024/04/19 10:38:15;;;;;;;6.47;5.28;;;4.40;99.90;;;;;;5452807;26;20274;-65
2024/04/19 10:40:42;;;;;;;7.28;5.90;;;4.20;99.90;;;;;;5452434;26;20214;-65
2024/04/19 10:43:08;;;;;;;9.45;7.13;;;4.30;99.90;;;;;;5452713;26;20266;-65
2024/04/19 10:45:36;;;;;;;8.10;4.95;;;4.30;99.90;;;;;;5452917;26;20226;-65
2024/04/19 10:48:02;;;;;;;7.18;6.25;;;4.50;99.90;;;;;;5452668;26;20707;-65
2024/04/19 10:50:29;;;;;;;7.75;5.05;;;4.50;99.90;;;;;;5452331;26;20689;-65
2024/04/19 10:52:57;;;;;;;9.75;4.90;;;4.50;99.90;;;;;;5452592;26;20771;-65
2024/04/19 10:55:27;;;;;;;6.78;5.47;;;4.40;99.90;;;;;;5452605;26;20211;-65
2024/04/19 10:57:53;;;;;;;6.35;5.25;;;4.60;99.90;;;;;;5452434;26;20212;-65
2024/04/19 11:00:19;;;;;;;7.53;5.80;;;4.70;99.90;;;;;;5452062;26;20266;-65
2024/04/19 11:02:44;;;;;;;6.80;5.17;;;4.90;99.90;;;;;;5452600;26;20457;-65
2024/04/19 11:05:11;;;;;;;6.43;5.50;;;5.10;99.90;;;;;;5452587;26;20220;-66
2024/04/19 11:07:37;;;;;;;6.97;4.93;;;5.20;99.90;;;;;;5452406;26;20658;-65
2024/04/19 11:10:06;;;;;;;10.00;5.60;;;5.20;99.90;;;;;;5452250;26;20713;-65
2024/04/19 11:12:33;;;;;;;5.68;4.30;;;5.10;99.90;;;;;;5452262;26;20755;-65
2024/04/19 11:15:01;;;;;;;6.30;4.93;;;5.10;99.90;;;;;;5452336;26;20210;-65
2024/04/19 11:17:27;;;;;;;8.75;5.30;;;5.30;99.90;;;;;;5452189;26;20663;-65
2024/04/19 11:19:52;;;;;;;5.70;4.23;;;5.20;99.90;;;;;;5452137;26;20223;-65
2024/04/19 11:22:18;;;;;;;7.20;4.77;;;5.10;99.80;;;;;;5451860;26;20227;-65
2024/04/19 11:24:44;;;;;;;6.03;4.77;;;5.00;99.90;;;;;;5452194;26;20406;-65
2024/04/19 11:27:12;;;;;;;4.97;4.33;;;5.00;99.90;;;;;;5452067;26;20568;-65
2024/04/19 11:29:37;;;;;;;6.25;4.90;;;5.10;99.40;;;;;;5452243;26;20433;-65
2024/04/19 11:32:07;;;;;;;8.90;5.63;;;5.40;99.90;;;;;;5451785;26;20696;-65
2024/04/19 11:34:36;;;;;;;5.75;5.22;;;5.50;99.80;;;;;;5451985;26;20507;-65
2024/04/19 11:37:03;;;;;;;6.95;5.50;;;5.60;99.80;;;;;;5451978;26;20215;-65
2024/04/19 11:39:33;;;;;;;8.38;5.70;;;5.60;99.60;;;;;;5451520;26;20576;-65
2024/04/19 11:41:59;;;;;;;8.48;6.07;;;5.50;99.20;;;;;;5451603;26;20562;-65
2024/04/19 11:44:24;;;;;;;7.10;4.45;;;5.60;99.40;;;;;;5451990;26;20288;-65
2024/04/19 11:46:50;;;;;;;6.53;5.80;;;5.70;99.50;;;;;;5451776;26;20217;-65
2024/04/19 11:49:16;;;;;;;5.23;4.07;;;5.80;99.40;;;;;;5451650;26;20224;-65
2024/04/19 11:51:44;;;;;;;7.50;5.10;;;6.00;99.50;;;;;;5451519;26;20552;-65
2024/04/19 11:54:10;;;;;;;4.72;4.28;;;6.00;98.90;;;;;;5451603;26;20226;-65
2024/04/19 11:56:36;;;;;;;4.50;4.10;;;6.00;98.70;;;;;;5451891;26;20214;-65
2024/04/19 11:59:01;;;;;;;3.80;3.40;;;5.90;98.60;;;;;;5451534;26;20495;-65
2024/04/19 12:01:27;;;;;;;6.13;4.17;;;5.90;98.40;;;;;;5451778;26;20217;-65
2024/04/19 12:03:54;;;;;;;4.30;3.80;;;5.60;99.00;;;;;;5451478;26;20653;-65
2024/04/19 12:06:21;;;;;;;4.93;4.43;;;5.50;99.00;;;;;;5451529;26;20828;-65
2024/04/19 12:08:50;;;;;;;3.85;3.45;;;5.70;99.30;;;;;;5451507;26;20253;-65
2024/04/19 12:11:16;;;;;;;5.47;4.28;;;5.80;99.00;;;;;;5451082;26;20636;-65
2024/04/19 12:13:47;;;;;;;5.25;2.95;;;6.10;98.80;;;;;;5451434;26;20257;-65
2024/04/19 12:16:13;;;;;;;4.13;3.33;;;6.10;98.30;;;;;;5451445;26;20259;-65
2024/04/19 12:18:39;;;;;;;4.93;3.30;;;6.10;98.60;;;;;;5451511;26;20247;-65
2024/04/19 12:21:05;;;;;;;3.53;2.70;;;5.80;98.20;;;;;;5451230;26;20440;-65
2024/04/19 12:23:31;;;;;;;4.75;3.20;;;5.80;98.60;;;;;;5451162;26;20301;-65
2024/04/19 12:25:56;;;;;;;2.57;2.23;;;6.00;98.90;;;;;;5451248;26;20219;-65
2024/04/19 12:28:24;;;;;;;3.20;2.90;;;5.90;97.70;;;;;;5451647;26;20756;-65
2024/04/19 12:30:51;;;;;;;3.03;2.45;;;5.90;98.30;;;;;;5450797;26;20227;-65
2024/04/19 12:33:17;;;;;;;2.58;2.33;;;5.90;97.60;;;;;;5451230;26;20322;-65
2024/04/19 12:35:43;;;;;;;3.50;2.63;;;5.80;97.90;;;;;;5451012;26;20252;-65
2024/04/19 12:38:09;;;;;;;3.58;3.30;;;5.80;97.70;;;;;;5450977;26;20257;-65
2024/04/19 12:40:35;;;;;;;5.70;4.37;;;5.80;97.80;;;;;;5450620;26;20576;-65
2024/04/19 12:43:01;;;;;;;2.83;2.63;;;5.80;98.20;;;;;;5450780;26;20223;-65
2024/04/19 12:45:27;;;;;;;4.10;2.70;;;5.80;98.30;;;;;;5450834;26;20253;-65
2024/04/19 12:48:05;;;;;;;5.53;3.20;;;5.90;98.20;;;;;;5450716;26;20214;-65
2024/04/19 12:50:37;;;;;;;3.30;2.55;;;5.90;97.80;;;;;;5450319;26;20219;-65
2024/04/19 12:53:03;;;;;;;3.38;3.08;;;5.90;97.80;;;;;;5453103;26;20226;-65
2024/04/19 12:55:34;;;;;;;3.88;3.20;;;5.90;97.80;;;;;;5454279;26;20219;-65
2024/04/19 12:58:01;;;;;;;2.97;2.70;;;6.00;97.70;;;;;;5454258;26;20211;-65